createdAt,value
2018-12-27T00:00:44.787Z,93.00
2018-12-27T00:03:14.575Z,92.90
2018-12-27T00:05:44.371Z,93.00
2018-12-27T00:08:14.681Z,93.10
2018-12-27T00:10:44.400Z,93.20
2018-12-27T00:13:14.391Z,93.00
2018-12-27T00:15:44.209Z,92.90
2018-12-27T00:18:13.983Z,93.00
2018-12-27T00:20:44.694Z,92.80
2018-12-27T00:23:14.846Z,93.00
2018-12-27T00:25:44.588Z,92.60
2018-12-27T00:28:14.332Z,92.40
2018-12-27T00:30:44.192Z,92.70
2018-12-27T00:33:14.167Z,92.80
2018-12-27T00:35:44.328Z,93.00
2018-12-27T00:38:14.262Z,92.60
2018-12-27T00:40:44.134Z,92.50
2018-12-27T00:43:14.035Z,92.70
2018-12-27T00:45:43.923Z,92.20
2018-12-27T00:48:13.784Z,92.50
2018-12-27T00:50:43.655Z,92.60
2018-12-27T00:53:13.574Z,92.70
2018-12-27T00:55:43.457Z,92.80
2018-12-27T00:58:13.403Z,92.60
2018-12-27T01:00:43.540Z,92.80
2018-12-27T01:03:13.474Z,92.10
2018-12-27T01:05:43.404Z,92.10
2018-12-27T01:08:13.267Z,92.50
2018-12-27T01:10:43.721Z,92.40
2018-12-27T01:13:13.582Z,92.20
2018-12-27T01:15:44.829Z,92.20
2018-12-27T01:18:26.869Z,92.30
2018-12-27T01:21:08.752Z,91.80
2018-12-27T01:23:50.660Z,91.80
2018-12-27T01:26:32.843Z,92.00
2018-12-27T01:29:14.385Z,91.80
2018-12-27T01:31:57.212Z,92.10
2018-12-27T01:34:39.135Z,92.10
2018-12-27T01:37:20.912Z,92.10
2018-12-27T01:40:02.291Z,92.30
2018-12-27T01:42:43.969Z,92.50
2018-12-27T01:45:26.131Z,92.60
2018-12-27T01:48:08.278Z,92.10
2018-12-27T01:50:50.018Z,92.20
2018-12-27T01:53:31.950Z,92.20
2018-12-27T01:56:14.102Z,92.20
2018-12-27T01:58:56.264Z,92.20
2018-12-27T02:01:37.860Z,92.30
2018-12-27T02:04:19.765Z,92.20
2018-12-27T02:07:02.027Z,92.40
2018-12-27T02:09:44.344Z,92.30
2018-12-27T02:12:25.978Z,92.60
2018-12-27T02:15:08.108Z,92.70
2018-12-27T02:17:50.254Z,92.70
2018-12-27T02:20:32.697Z,92.90
2018-12-27T02:23:13.980Z,92.80
2018-12-27T02:25:56.007Z,92.60
2018-12-27T02:28:37.604Z,92.40
2018-12-27T02:31:19.488Z,92.50
2018-12-27T02:34:00.966Z,92.50
2018-12-27T02:36:43.334Z,92.30
2018-12-27T02:39:24.863Z,92.20
2018-12-27T02:42:06.864Z,92.60
2018-12-27T02:44:48.201Z,92.40
2018-12-27T02:47:29.581Z,92.70
2018-12-27T02:50:11.192Z,92.80
2018-12-27T02:52:53.204Z,93.00
2018-12-27T02:55:34.895Z,93.10
2018-12-27T02:58:16.962Z,92.60
2018-12-27T03:00:58.432Z,92.20
2018-12-27T03:03:44.052Z,92.30
2018-12-27T03:06:24.270Z,92.00
2018-12-27T03:09:06.332Z,91.60
2018-12-27T03:11:48.291Z,90.90
2018-12-27T03:14:30.020Z,90.80
2018-12-27T03:17:12.008Z,90.50
2018-12-27T03:19:54.052Z,90.50
2018-12-27T03:22:35.548Z,90.60
2018-12-27T03:25:17.671Z,90.80
2018-12-27T03:27:58.971Z,90.90
2018-12-27T03:30:40.787Z,91.00
2018-12-27T03:33:22.980Z,91.20
2018-12-27T03:36:05.173Z,91.50
2018-12-27T03:38:46.968Z,92.00
2018-12-27T03:41:29.110Z,92.20
2018-12-27T03:44:11.284Z,92.20
2018-12-27T03:46:53.014Z,92.40
2018-12-27T03:49:34.376Z,92.60
2018-12-27T03:52:15.733Z,92.40
2018-12-27T03:54:57.669Z,92.50
2018-12-27T03:57:39.704Z,92.50
2018-12-27T04:00:21.180Z,92.50
2018-12-27T04:03:03.319Z,92.80
2018-12-27T04:05:45.425Z,92.90
2018-12-27T04:08:26.706Z,93.10
2018-12-27T04:11:08.456Z,93.30
2018-12-27T04:13:50.592Z,93.50
2018-12-27T04:16:32.480Z,93.30
2018-12-27T04:19:03.269Z,93.40
2018-12-27T04:21:52.256Z,93.40
2018-12-27T04:24:34.365Z,93.30
2018-12-27T04:27:16.495Z,93.30
2018-12-27T04:29:58.015Z,93.30
2018-12-27T04:33:07.927Z,93.40
2018-12-27T04:35:57.115Z,93.30
2018-12-27T04:38:38.948Z,93.50
2018-12-27T04:41:20.544Z,93.40
2018-12-27T04:44:02.239Z,93.50
2018-12-27T04:46:44.435Z,93.60
2018-12-27T04:49:27.083Z,93.90
2018-12-27T04:52:08.800Z,94.10
2018-12-27T04:54:51.543Z,94.20
2018-12-27T04:57:33.685Z,94.30
2018-12-27T05:00:15.689Z,94.40
2018-12-27T05:02:55.957Z,94.60
2018-12-27T05:05:44.888Z,95.00
2018-12-27T05:08:26.720Z,95.10
2018-12-27T05:11:08.070Z,95.20
2018-12-27T05:13:50.421Z,95.10
2018-12-27T05:16:32.091Z,95.20
2018-12-27T05:19:14.172Z,95.00
2018-12-27T05:21:55.725Z,95.00
2018-12-27T05:24:36.929Z,95.00
2018-12-27T05:27:19.047Z,94.90
2018-12-27T05:30:00.803Z,95.10
2018-12-27T05:32:42.665Z,95.20
2018-12-27T05:35:22.738Z,95.50
2018-12-27T05:38:11.663Z,95.60
2018-12-27T05:40:51.672Z,95.80
2018-12-27T05:43:40.599Z,96.00
2018-12-27T05:46:22.272Z,96.20
2018-12-27T05:49:04.519Z,96.30
2018-12-27T05:51:46.363Z,96.30
2018-12-27T05:54:27.839Z,96.50
2018-12-27T05:57:09.816Z,96.70
2018-12-27T05:59:51.646Z,96.70
2018-12-27T06:02:33.519Z,97.00
2018-12-27T06:05:15.567Z,97.00
2018-12-27T06:07:57.196Z,97.20
2018-12-27T06:10:39.183Z,97.20
2018-12-27T06:13:21.135Z,97.30
2018-12-27T06:16:03.582Z,97.30
2018-12-27T06:18:45.490Z,97.40
2018-12-27T06:21:27.376Z,97.50
2018-12-27T06:24:08.734Z,97.30
2018-12-27T06:26:51.083Z,97.50
2018-12-27T06:29:32.908Z,97.70
2018-12-27T06:32:14.191Z,97.90
2018-12-27T06:34:56.320Z,97.80
2018-12-27T06:37:38.327Z,97.70
2018-12-27T06:40:20.394Z,97.80
2018-12-27T06:43:02.616Z,97.90
2018-12-27T06:45:44.676Z,97.90
2018-12-27T06:48:26.522Z,98.40
2018-12-27T06:51:07.959Z,98.00
2018-12-27T06:53:49.915Z,98.40
2018-12-27T06:56:31.436Z,98.10
2018-12-27T06:59:13.610Z,98.00
2018-12-27T07:01:55.232Z,97.90
2018-12-27T07:04:37.022Z,97.90
2018-12-27T07:07:18.542Z,98.00
2018-12-27T07:09:59.913Z,98.00
2018-12-27T07:12:42.020Z,98.00
2018-12-27T07:15:23.311Z,98.00
2018-12-27T07:18:04.787Z,98.00
2018-12-27T07:20:47.889Z,98.00
2018-12-27T07:23:30.017Z,97.90
2018-12-27T07:26:11.537Z,98.00
2018-12-27T07:28:53.957Z,98.10
2018-12-27T07:31:36.063Z,98.00
2018-12-27T07:34:18.091Z,97.80
2018-12-27T07:36:59.911Z,97.90
2018-12-27T07:39:41.228Z,98.00
2018-12-27T07:42:22.791Z,97.80
2018-12-27T07:45:05.005Z,97.80
2018-12-27T07:47:46.984Z,97.90
2018-12-27T07:50:29.095Z,97.80
2018-12-27T07:53:11.079Z,97.00
2018-12-27T07:55:53.086Z,96.40
2018-12-27T07:58:34.820Z,96.00
2018-12-27T08:01:16.165Z,95.80
2018-12-27T08:03:58.255Z,95.60
2018-12-27T08:06:40.373Z,95.40
2018-12-27T08:09:22.483Z,95.50
2018-12-27T08:12:04.107Z,95.10
2018-12-27T08:14:45.435Z,95.20
2018-12-27T08:17:27.513Z,95.00
2018-12-27T08:20:09.613Z,94.10
2018-12-27T08:22:51.403Z,93.50
2018-12-27T08:25:35.662Z,92.20
2018-12-27T08:28:17.503Z,91.50
2018-12-27T08:30:58.803Z,90.70
2018-12-27T08:33:40.703Z,89.30
2018-12-27T08:36:22.707Z,88.60
2018-12-27T08:39:05.016Z,87.60
2018-12-27T08:41:46.351Z,87.10
2018-12-27T08:44:27.573Z,87.50
2018-12-27T08:47:09.788Z,88.70
2018-12-27T08:49:51.226Z,89.70
2018-12-27T08:52:33.268Z,90.20
2018-12-27T08:55:15.319Z,91.20
2018-12-27T08:57:57.399Z,88.90
2018-12-27T09:00:27.466Z,90.50
2018-12-27T09:02:57.226Z,88.80
2018-12-27T09:05:27.288Z,88.50
2018-12-27T09:07:57.035Z,86.70
2018-12-27T09:10:26.842Z,89.80
2018-12-27T09:12:56.874Z,89.00
2018-12-27T09:15:26.586Z,89.90
2018-12-27T09:17:56.376Z,87.30
2018-12-27T09:20:26.079Z,86.30
2018-12-27T09:22:55.772Z,83.20
2018-12-27T09:25:26.115Z,83.30
2018-12-27T09:27:55.843Z,81.60
2018-12-27T09:30:25.557Z,78.70
2018-12-27T09:32:55.272Z,75.60
2018-12-27T09:35:26.444Z,71.00
2018-12-27T09:37:57.427Z,69.90
2018-12-27T09:40:27.314Z,68.90
2018-12-27T09:42:57.020Z,67.80
2018-12-27T09:45:27.064Z,64.90
2018-12-27T09:47:56.799Z,64.60
2018-12-27T09:50:26.768Z,64.10
2018-12-27T09:52:56.491Z,63.30
2018-12-27T09:55:26.214Z,64.90
2018-12-27T09:57:56.010Z,67.40
2018-12-27T10:00:25.817Z,67.70
2018-12-27T10:02:55.512Z,67.30
2018-12-27T10:05:25.324Z,65.40
2018-12-27T10:07:57.565Z,63.30
2018-12-27T10:10:26.820Z,61.40
2018-12-27T10:12:56.807Z,60.20
2018-12-27T10:15:26.503Z,59.90
2018-12-27T10:17:56.223Z,58.20
2018-12-27T10:20:26.054Z,56.50
2018-12-27T10:22:56.159Z,57.90
2018-12-27T10:25:25.915Z,56.80
2018-12-27T10:27:55.829Z,57.60
2018-12-27T10:30:26.024Z,59.10
2018-12-27T10:32:55.783Z,60.70
2018-12-27T10:35:25.571Z,59.50
2018-12-27T10:37:55.463Z,58.50
2018-12-27T10:40:25.667Z,56.70
2018-12-27T10:42:55.379Z,57.40
2018-12-27T10:45:25.120Z,58.80
2018-12-27T10:47:54.816Z,61.30
2018-12-27T10:50:24.563Z,61.80
2018-12-27T10:52:54.283Z,62.50
2018-12-27T10:55:24.195Z,62.20
2018-12-27T10:57:53.950Z,63.70
2018-12-27T11:00:23.663Z,65.40
2018-12-27T11:02:53.407Z,65.70
2018-12-27T11:05:23.183Z,66.60
2018-12-27T11:07:53.945Z,68.00
2018-12-27T11:10:23.675Z,70.00
2018-12-27T11:12:53.688Z,68.50
2018-12-27T11:15:23.393Z,69.30
2018-12-27T11:17:53.364Z,69.00
2018-12-27T11:20:23.077Z,69.30
2018-12-27T11:22:52.807Z,68.00
2018-12-27T11:25:22.604Z,68.20
2018-12-27T11:27:52.379Z,66.90
2018-12-27T11:30:22.352Z,67.90
2018-12-27T11:32:52.120Z,67.00
2018-12-27T11:35:22.004Z,65.70
2018-12-27T11:37:51.709Z,64.90
2018-12-27T11:40:21.715Z,65.50
2018-12-27T11:42:51.831Z,65.30
2018-12-27T11:45:21.863Z,67.00
2018-12-27T11:47:51.544Z,67.50
2018-12-27T11:50:21.578Z,66.50
2018-12-27T11:52:51.544Z,67.50
2018-12-27T11:55:21.291Z,67.10
2018-12-27T11:57:50.998Z,67.40
2018-12-27T12:00:20.802Z,68.10
2018-12-27T12:02:51.496Z,68.10
2018-12-27T12:05:21.200Z,67.80
2018-12-27T12:07:50.922Z,68.20
2018-12-27T12:10:20.632Z,68.60
2018-12-27T12:12:50.342Z,69.20
2018-12-27T12:15:20.146Z,68.70
2018-12-27T12:17:50.331Z,69.80
2018-12-27T12:20:20.063Z,68.70
2018-12-27T12:22:49.783Z,68.80
2018-12-27T12:25:19.502Z,68.50
2018-12-27T12:27:49.462Z,69.10
2018-12-27T12:30:19.239Z,70.90
2018-12-27T12:32:49.314Z,70.00
2018-12-27T12:35:19.087Z,68.60
2018-12-27T12:37:49.214Z,68.50
2018-12-27T12:40:19.203Z,67.60
2018-12-27T12:42:48.980Z,67.20
2018-12-27T12:45:19.047Z,67.30
2018-12-27T12:47:50.091Z,67.80
2018-12-27T12:50:19.917Z,67.50
2018-12-27T12:52:49.629Z,67.50
2018-12-27T12:55:19.319Z,67.10
2018-12-27T12:57:49.439Z,67.50
2018-12-27T13:00:19.167Z,67.40
2018-12-27T13:02:48.960Z,67.20
2018-12-27T13:05:18.655Z,69.60
2018-12-27T13:07:48.624Z,69.60
2018-12-27T13:10:18.367Z,69.70
2018-12-27T13:12:48.071Z,69.10
2018-12-27T13:15:17.854Z,70.20
2018-12-27T13:17:47.568Z,71.00
2018-12-27T13:20:17.293Z,72.30
2018-12-27T13:22:47.513Z,70.80
2018-12-27T13:25:17.387Z,71.20
2018-12-27T13:27:47.103Z,70.40
2018-12-27T13:30:17.156Z,70.80
2018-12-27T13:32:46.951Z,70.60
2018-12-27T13:35:16.744Z,71.20
2018-12-27T13:37:46.583Z,71.60
2018-12-27T13:40:16.275Z,71.80
2018-12-27T13:42:46.019Z,74.60
2018-12-27T13:45:15.779Z,75.70
2018-12-27T13:47:45.530Z,74.00
2018-12-27T13:50:15.249Z,73.20
2018-12-27T13:52:44.949Z,74.60
2018-12-27T13:55:14.749Z,73.40
2018-12-27T13:57:44.572Z,74.10
2018-12-27T14:00:14.291Z,73.70
2018-12-27T14:02:44.044Z,74.50
2018-12-27T14:05:13.953Z,74.50
2018-12-27T14:07:43.712Z,75.40
2018-12-27T14:10:13.423Z,75.20
2018-12-27T14:12:43.525Z,75.10
2018-12-27T14:15:13.667Z,76.70
2018-12-27T14:17:43.436Z,77.40
2018-12-27T14:20:13.801Z,78.20
2018-12-27T14:22:43.545Z,79.30
2018-12-27T14:25:13.344Z,77.30
2018-12-27T14:27:43.087Z,78.10
2018-12-27T14:30:13.208Z,76.90
2018-12-27T14:32:43.026Z,80.60
2018-12-27T14:35:13.586Z,80.40
2018-12-27T14:41:10.713Z,77.40
2018-12-27T14:43:40.447Z,79.80
2018-12-27T14:46:10.542Z,79.90
2018-12-27T14:48:40.299Z,80.20
2018-12-27T14:51:11.339Z,78.60
2018-12-27T14:53:41.226Z,82.40
2018-12-27T14:56:11.000Z,81.90
2018-12-27T14:58:40.705Z,81.80
2018-12-27T15:01:10.707Z,84.20
2018-12-27T15:03:40.541Z,84.70
2018-12-27T15:06:10.318Z,85.20
2018-12-27T15:08:40.155Z,86.20
2018-12-27T15:11:09.992Z,86.80
2018-12-27T15:13:39.903Z,88.10
2018-12-27T15:16:09.699Z,87.30
2018-12-27T15:18:39.450Z,88.40
2018-12-27T15:21:09.262Z,88.00
2018-12-27T15:23:39.276Z,89.80
2018-12-27T15:26:09.142Z,85.90
2018-12-27T15:28:38.913Z,86.50
2018-12-27T15:31:08.749Z,89.50
2018-12-27T15:33:38.515Z,90.10
2018-12-27T15:36:10.466Z,89.80
2018-12-27T15:38:40.746Z,90.30
2018-12-27T15:41:10.566Z,90.50
2018-12-27T15:43:40.439Z,90.60
2018-12-27T15:46:10.881Z,90.40
2018-12-27T15:48:41.647Z,90.60
2018-12-27T15:51:12.384Z,90.90
2018-12-27T15:53:43.096Z,91.40
2018-12-27T15:56:13.830Z,91.60
2018-12-27T15:58:44.619Z,91.60
2018-12-27T16:01:15.305Z,91.90
2018-12-27T16:03:46.054Z,92.20
2018-12-27T16:06:16.738Z,92.30
2018-12-27T16:08:47.403Z,92.30
2018-12-27T16:11:17.241Z,92.70
2018-12-27T16:13:47.487Z,92.90
2018-12-27T16:16:17.468Z,93.20
2018-12-27T16:18:47.457Z,93.50
2018-12-27T16:21:17.229Z,93.80
2018-12-27T16:23:47.392Z,93.20
2018-12-27T16:26:17.194Z,93.40
2018-12-27T16:28:46.995Z,93.70
2018-12-27T16:31:16.832Z,94.00
2018-12-27T16:33:46.605Z,94.30
2018-12-27T16:36:16.369Z,94.20
2018-12-27T16:38:46.645Z,94.40
2018-12-27T16:41:16.564Z,94.50
2018-12-27T16:43:46.400Z,94.50
2018-12-27T16:46:16.593Z,94.40
2018-12-27T16:48:46.444Z,94.50
2018-12-27T16:51:16.269Z,95.00
2018-12-27T16:53:46.033Z,94.80
2018-12-27T16:56:15.863Z,94.70
2018-12-27T16:58:45.919Z,94.90
2018-12-27T17:01:15.898Z,94.90
2018-12-27T17:03:45.791Z,95.20
2018-12-27T17:06:15.729Z,95.20
2018-12-27T17:08:46.343Z,95.30
2018-12-27T17:11:16.289Z,95.40
2018-12-27T17:13:46.183Z,95.30
2018-12-27T17:16:18.623Z,95.40
2018-12-27T17:18:48.517Z,95.40
2018-12-27T17:21:18.639Z,95.30
2018-12-27T17:23:48.434Z,95.50
2018-12-27T17:26:18.222Z,95.70
2018-12-27T17:28:48.243Z,95.90
2018-12-27T17:31:18.056Z,95.40
2018-12-27T17:33:47.882Z,95.70
2018-12-27T17:36:17.630Z,95.80
2018-12-27T17:38:47.381Z,95.90
2018-12-27T17:41:17.248Z,95.60
2018-12-27T17:43:47.145Z,95.90
2018-12-27T17:46:17.713Z,95.90
2018-12-27T17:48:47.910Z,95.70
2018-12-27T17:51:17.853Z,95.60
2018-12-27T17:53:47.791Z,95.70
2018-12-27T17:56:17.984Z,95.80
2018-12-27T17:58:47.880Z,96.00
2018-12-27T18:01:17.672Z,96.10
2018-12-27T18:03:47.522Z,95.80
2018-12-27T18:06:17.427Z,96.10
2018-12-27T18:08:47.169Z,95.80
2018-12-27T18:11:16.945Z,95.80
2018-12-27T18:13:46.764Z,96.00
2018-12-27T18:16:16.587Z,96.20
2018-12-27T18:18:46.358Z,96.20
2018-12-27T18:21:16.119Z,96.10
2018-12-27T18:23:45.942Z,96.00
2018-12-27T18:26:15.868Z,96.20
2018-12-27T18:28:45.634Z,96.50
2018-12-27T18:31:15.492Z,96.50
2018-12-27T18:33:45.316Z,96.60
2018-12-27T18:36:15.678Z,96.30
2018-12-27T18:38:45.856Z,96.50
2018-12-27T18:41:15.579Z,96.70
2018-12-27T18:43:45.676Z,96.70
2018-12-27T18:46:15.411Z,96.80
2018-12-27T18:48:45.222Z,96.90
2018-12-27T18:51:14.935Z,96.80
2018-12-27T18:53:44.777Z,96.90
2018-12-27T18:56:15.081Z,96.80
2018-12-27T18:58:44.797Z,96.60
2018-12-27T19:01:14.767Z,96.80
2018-12-27T19:03:44.690Z,96.80
2018-12-27T19:06:14.431Z,97.10
2018-12-27T19:08:44.593Z,96.80
2018-12-27T19:11:49.943Z,96.60
2018-12-27T19:14:19.724Z,97.00
2018-12-27T19:16:51.280Z,96.80
2018-12-27T19:19:21.276Z,97.00
2018-12-27T19:22:09.480Z,96.90
2018-12-27T19:24:43.078Z,97.00
2018-12-27T19:27:12.800Z,97.00
2018-12-27T19:29:44.610Z,97.00
2018-12-27T19:32:15.645Z,96.60
2018-12-27T19:34:45.439Z,96.50
2018-12-27T19:37:15.791Z,96.60
2018-12-27T19:39:45.671Z,96.70
2018-12-27T19:42:15.481Z,96.50
2018-12-27T19:44:45.515Z,96.30
2018-12-27T19:47:15.247Z,96.30
2018-12-27T19:49:45.263Z,96.10
2018-12-27T19:52:15.725Z,95.80
2018-12-27T19:54:45.774Z,95.90
2018-12-27T19:57:16.876Z,95.60
2018-12-27T19:59:46.728Z,95.60
2018-12-27T20:02:16.573Z,95.70
2018-12-27T20:04:46.446Z,95.90
2018-12-27T20:07:16.168Z,95.90
2018-12-27T20:09:45.957Z,95.90
2018-12-27T20:12:15.656Z,95.70
2018-12-27T20:14:45.351Z,95.70
2018-12-27T20:17:15.075Z,95.70
2018-12-27T20:19:45.290Z,95.90
2018-12-27T20:22:15.003Z,95.80
2018-12-27T20:24:44.771Z,96.00
2018-12-27T20:27:14.835Z,96.10
2018-12-27T20:29:47.154Z,96.00
2018-12-27T20:32:16.997Z,95.80
2018-12-27T20:34:47.182Z,95.80
2018-12-27T20:37:16.960Z,95.80
2018-12-27T20:39:47.278Z,96.00
2018-12-27T20:42:16.999Z,95.40
2018-12-27T20:44:46.774Z,95.30
2018-12-27T20:47:16.942Z,95.20
2018-12-27T20:49:47.832Z,94.90
2018-12-27T20:52:17.531Z,94.90
2018-12-27T20:54:47.474Z,95.20
2018-12-27T20:57:17.168Z,95.40
2018-12-27T20:59:46.883Z,95.50
2018-12-27T21:02:16.881Z,95.60
2018-12-27T21:04:46.579Z,95.90
2018-12-27T21:07:16.268Z,95.70
2018-12-27T21:09:46.231Z,95.70
2018-12-27T21:12:16.239Z,95.70
2018-12-27T21:14:46.319Z,95.60
2018-12-27T21:17:16.041Z,95.70
2018-12-27T21:19:46.098Z,95.90
2018-12-27T21:22:16.031Z,95.90
2018-12-27T21:24:46.231Z,95.90
2018-12-27T21:27:16.012Z,95.80
2018-12-27T21:29:45.776Z,95.90
2018-12-27T21:32:15.470Z,96.00
2018-12-27T21:34:45.211Z,96.00
2018-12-27T21:37:15.175Z,96.00
2018-12-27T21:39:45.147Z,95.80
2018-12-27T21:42:14.860Z,96.00
2018-12-27T21:44:44.549Z,96.20
2018-12-27T21:47:14.266Z,95.90
2018-12-27T21:49:44.887Z,96.00
2018-12-27T21:52:14.835Z,95.90
2018-12-27T21:54:44.626Z,96.10
2018-12-27T21:57:14.584Z,95.90
2018-12-27T21:59:44.275Z,95.90
2018-12-27T22:02:14.030Z,96.10
2018-12-27T22:04:43.981Z,95.80
2018-12-27T22:07:13.700Z,96.10
2018-12-27T22:09:43.403Z,96.00
2018-12-27T22:12:13.961Z,95.80
2018-12-27T22:14:43.691Z,95.90
2018-12-27T22:17:13.409Z,95.60
2018-12-27T22:19:43.154Z,95.60
2018-12-27T22:22:14.427Z,95.80
2018-12-27T22:24:44.362Z,96.00
2018-12-27T22:27:14.398Z,95.70
2018-12-27T22:29:44.110Z,95.30
2018-12-27T22:32:13.823Z,95.20
2018-12-27T22:34:43.795Z,95.40
2018-12-27T22:37:13.701Z,95.40
2018-12-27T22:39:44.664Z,95.40
2018-12-27T22:42:14.659Z,95.30
2018-12-27T22:44:44.531Z,95.40
2018-12-27T22:47:14.252Z,95.30
2018-12-27T22:49:43.971Z,95.50
2018-12-27T22:52:13.683Z,95.60
2018-12-27T22:54:43.392Z,95.60
2018-12-27T22:57:13.198Z,96.00
2018-12-27T22:59:42.955Z,95.80
2018-12-27T23:02:12.990Z,96.00
2018-12-27T23:04:42.952Z,96.20
2018-12-27T23:07:12.923Z,96.10
2018-12-27T23:09:42.645Z,96.40
2018-12-27T23:12:12.420Z,96.60
2018-12-27T23:14:42.123Z,96.50
2018-12-27T23:17:12.052Z,96.30
2018-12-27T23:19:41.772Z,96.30
2018-12-27T23:22:11.474Z,96.40
2018-12-27T23:24:41.221Z,96.30
2018-12-27T23:27:10.911Z,96.50
2018-12-27T23:29:40.699Z,96.60
2018-12-27T23:32:10.387Z,96.80
2018-12-27T23:34:40.430Z,96.70
2018-12-27T23:37:10.610Z,96.90
2018-12-27T23:39:40.575Z,97.00
2018-12-27T23:42:10.286Z,96.90
2018-12-27T23:44:40.058Z,97.00
2018-12-27T23:47:09.744Z,97.10
2018-12-27T23:49:39.767Z,97.20
2018-12-27T23:52:09.764Z,97.40
2018-12-27T23:54:39.496Z,97.30
2018-12-27T23:57:09.447Z,97.40
2018-12-27T23:59:39.152Z,97.60
